sensor_id;sensor_type;location;lat;lon;timestamp;temperature;humidity
1011;DHT22;494;48.744;10.106;2023-11-21T00:04:33;9.80;1.00
1011;DHT22;494;48.744;10.106;2023-11-21T04:59:26;9.80;1.00
1011;DHT22;494;48.744;10.106;2023-11-21T05:02:08;9.80;1.00
1011;DHT22;494;48.744;10.106;2023-11-21T05:08:02;9.90;1.00
1011;DHT22;494;48.744;10.106;2023-11-21T05:10:34;9.90;1.00
1011;DHT22;494;48.744;10.106;2023-11-21T05:13:05;9.90;1.00
1011;DHT22;494;48.744;10.106;2023-11-21T05:18:44;9.80;1.00
1011;DHT22;494;48.744;10.106;2023-11-21T05:30:13;9.80;1.00
1011;DHT22;494;48.744;10.106;2023-11-21T05:35:44;9.80;1.00
1011;DHT22;494;48.744;10.106;2023-11-21T05:38:15;9.80;1.00
1011;DHT22;494;48.744;10.106;2023-11-21T05:50:05;9.90;1.00
1011;DHT22;494;48.744;10.106;2023-11-21T05:52:43;9.90;1.00
1011;DHT22;494;48.744;10.106;2023-11-21T06:04:32;9.80;1.00
1011;DHT22;494;48.744;10.106;2023-11-21T06:07:04;9.80;1.00
1011;DHT22;494;48.744;10.106;2023-11-21T06:15:51;9.90;1.00
1011;DHT22;494;48.744;10.106;2023-11-21T06:21:35;10.00;1.00
1011;DHT22;494;48.744;10.106;2023-11-21T06:24:29;9.90;1.00
1011;DHT22;494;48.744;10.106;2023-11-21T08:47:27;11.30;1.00
1011;DHT22;494;48.744;10.106;2023-11-21T08:50:44;11.40;1.00
1011;DHT22;494;48.744;10.106;2023-11-21T08:53:27;11.40;1.00
1011;DHT22;494;48.744;10.106;2023-11-21T08:56:06;11.30;1.00
1011;DHT22;494;48.744;10.106;2023-11-21T08:58:38;11.40;1.00
1011;DHT22;494;48.744;10.106;2023-11-21T09:01:13;11.40;1.00
1011;DHT22;494;48.744;10.106;2023-11-21T09:03:43;11.50;1.00
1011;DHT22;494;48.744;10.106;2023-11-21T09:06:12;11.50;1.00
1011;DHT22;494;48.744;10.106;2023-11-21T09:09:07;11.50;1.00
1011;DHT22;494;48.744;10.106;2023-11-21T09:11:37;11.60;1.00
1011;DHT22;494;48.744;10.106;2023-11-21T09:14:06;11.70;1.00
1011;DHT22;494;48.744;10.106;2023-11-21T09:16:52;11.70;1.00
1011;DHT22;494;48.744;10.106;2023-11-21T09:19:42;11.90;1.00
1011;DHT22;494;48.744;10.106;2023-11-21T09:22:20;12.10;1.00
1011;DHT22;494;48.744;10.106;2023-11-21T09:24:49;12.50;1.00
1011;DHT22;494;48.744;10.106;2023-11-21T09:27:19;12.80;1.00
1011;DHT22;494;48.744;10.106;2023-11-21T09:30:15;12.80;1.00
1011;DHT22;494;48.744;10.106;2023-11-21T09:32:45;12.60;1.00
1011;DHT22;494;48.744;10.106;2023-11-21T09:35:18;12.50;1.00
1011;DHT22;494;48.744;10.106;2023-11-21T09:37:48;12.40;1.00
1011;DHT22;494;48.744;10.106;2023-11-21T09:40:22;12.20;1.00
1011;DHT22;494;48.744;10.106;2023-11-21T09:42:55;12.10;1.00
1011;DHT22;494;48.744;10.106;2023-11-21T09:45:26;12.00;1.00
1011;DHT22;494;48.744;10.106;2023-11-21T09:47:58;12.00;1.00
1011;DHT22;494;48.744;10.106;2023-11-21T09:50:32;11.90;1.00
1011;DHT22;494;48.744;10.106;2023-11-21T09:53:13;11.90;1.00
1011;DHT22;494;48.744;10.106;2023-11-21T09:55:50;11.90;1.00
1011;DHT22;494;48.744;10.106;2023-11-21T09:58:27;11.80;1.00
1011;DHT22;494;48.744;10.106;2023-11-21T10:01:01;11.80;1.00
1011;DHT22;494;48.744;10.106;2023-11-21T10:03:35;11.90;1.00
1011;DHT22;494;48.744;10.106;2023-11-21T10:06:08;11.70;1.00
1011;DHT22;494;48.744;10.106;2023-11-21T10:08:38;11.70;1.00
1011;DHT22;494;48.744;10.106;2023-11-21T10:11:20;11.70;1.00
1011;DHT22;494;48.744;10.106;2023-11-21T10:13:53;11.70;1.00
1011;DHT22;494;48.744;10.106;2023-11-21T10:16:26;11.80;1.00
1011;DHT22;494;48.744;10.106;2023-11-21T10:18:58;11.80;1.00
1011;DHT22;494;48.744;10.106;2023-11-21T10:21:40;11.80;1.00
1011;DHT22;494;48.744;10.106;2023-11-21T10:24:09;11.70;1.00
1011;DHT22;494;48.744;10.106;2023-11-21T10:26:41;11.70;1.00
1011;DHT22;494;48.744;10.106;2023-11-21T10:29:19;11.70;1.00
1011;DHT22;494;48.744;10.106;2023-11-21T10:31:50;11.70;1.00
1011;DHT22;494;48.744;10.106;2023-11-21T10:34:22;11.60;1.00
1011;DHT22;494;48.744;10.106;2023-11-21T10:36:52;11.60;1.00
1011;DHT22;494;48.744;10.106;2023-11-21T10:39:25;11.60;1.00
1011;DHT22;494;48.744;10.106;2023-11-21T10:41:58;11.60;1.00
1011;DHT22;494;48.744;10.106;2023-11-21T10:44:30;11.60;1.00
1011;DHT22;494;48.744;10.106;2023-11-21T10:47:00;11.70;1.00
1011;DHT22;494;48.744;10.106;2023-11-21T10:49:30;11.80;1.00
1011;DHT22;494;48.744;10.106;2023-11-21T10:52:01;11.90;1.00
1011;DHT22;494;48.744;10.106;2023-11-21T10:54:30;12.00;1.00
1011;DHT22;494;48.744;10.106;2023-11-21T10:57:00;12.20;1.00
1011;DHT22;494;48.744;10.106;2023-11-21T10:59:31;12.20;1.00
1011;DHT22;494;48.744;10.106;2023-11-21T11:02:01;12.20;1.00
1011;DHT22;494;48.744;10.106;2023-11-21T11:04:43;12.30;1.00
1011;DHT22;494;48.744;10.106;2023-11-21T11:07:21;12.30;1.00
1011;DHT22;494;48.744;10.106;2023-11-21T11:09:54;12.10;1.00
1011;DHT22;494;48.744;10.106;2023-11-21T11:12:24;12.20;1.00
1011;DHT22;494;48.744;10.106;2023-11-21T11:14:55;12.20;1.00
1011;DHT22;494;48.744;10.106;2023-11-21T11:17:26;12.20;1.00
1011;DHT22;494;48.744;10.106;2023-11-21T11:19:56;12.10;1.00
1011;DHT22;494;48.744;10.106;2023-11-21T11:22:35;12.10;1.00
1011;DHT22;494;48.744;10.106;2023-11-21T11:25:27;12.20;1.00
1011;DHT22;494;48.744;10.106;2023-11-21T11:28:07;12.20;1.00
1011;DHT22;494;48.744;10.106;2023-11-21T11:30:55;12.30;1.00
1011;DHT22;494;48.744;10.106;2023-11-21T11:33:38;13.50;1.00
1011;DHT22;494;48.744;10.106;2023-11-21T11:36:15;15.10;1.00
1011;DHT22;494;48.744;10.106;2023-11-21T11:39:28;15.90;1.00
1011;DHT22;494;48.744;10.106;2023-11-21T11:42:01;15.90;1.00
1011;DHT22;494;48.744;10.106;2023-11-21T11:44:52;15.40;1.00
1011;DHT22;494;48.744;10.106;2023-11-21T11:47:24;14.80;1.00
1011;DHT22;494;48.744;10.106;2023-11-21T11:50:04;14.40;1.00
1011;DHT22;494;48.744;10.106;2023-11-21T11:52:41;14.00;1.00
1011;DHT22;494;48.744;10.106;2023-11-21T11:55:14;13.90;1.00
1011;DHT22;494;48.744;10.106;2023-11-21T11:57:46;13.80;1.00
1011;DHT22;494;48.744;10.106;2023-11-21T12:00:19;13.90;1.00
1011;DHT22;494;48.744;10.106;2023-11-21T12:02:53;13.90;1.00
1011;DHT22;494;48.744;10.106;2023-11-21T12:05:25;14.00;1.00
1011;DHT22;494;48.744;10.106;2023-11-21T12:07:57;14.00;1.00
1011;DHT22;494;48.744;10.106;2023-11-21T12:13:28;13.70;1.00
1011;DHT22;494;48.744;10.106;2023-11-21T12:15:58;13.30;1.00
1011;DHT22;494;48.744;10.106;2023-11-21T12:18:28;13.00;1.00
1011;DHT22;494;48.744;10.106;2023-11-21T12:20:58;13.00;1.00
1011;DHT22;494;48.744;10.106;2023-11-21T12:23:27;12.90;1.00
1011;DHT22;494;48.744;10.106;2023-11-21T12:25:57;12.90;1.00
1011;DHT22;494;48.744;10.106;2023-11-21T12:28:27;13.60;1.00
1011;DHT22;494;48.744;10.106;2023-11-21T12:30:57;14.10;1.00
1011;DHT22;494;48.744;10.106;2023-11-21T12:33:44;14.20;1.00
1011;DHT22;494;48.744;10.106;2023-11-21T12:36:14;14.30;1.00
1011;DHT22;494;48.744;10.106;2023-11-21T12:38:44;14.30;1.00
1011;DHT22;494;48.744;10.106;2023-11-21T12:41:14;14.30;1.00
1011;DHT22;494;48.744;10.106;2023-11-21T12:43:46;14.30;1.00
1011;DHT22;494;48.744;10.106;2023-11-21T12:46:16;14.40;1.00
1011;DHT22;494;48.744;10.106;2023-11-21T12:48:47;14.50;1.00
1011;DHT22;494;48.744;10.106;2023-11-21T12:51:18;14.60;1.00
1011;DHT22;494;48.744;10.106;2023-11-21T12:53:50;14.40;1.00
1011;DHT22;494;48.744;10.106;2023-11-21T12:56:21;14.10;1.00
1011;DHT22;494;48.744;10.106;2023-11-21T12:58:54;13.90;1.00
1011;DHT22;494;48.744;10.106;2023-11-21T13:01:26;13.70;1.00
1011;DHT22;494;48.744;10.106;2023-11-21T13:03:57;13.40;1.00
1011;DHT22;494;48.744;10.106;2023-11-21T13:06:26;13.30;1.00
1011;DHT22;494;48.744;10.106;2023-11-21T13:09:00;13.20;1.00
1011;DHT22;494;48.744;10.106;2023-11-21T13:14:09;12.70;1.00
1011;DHT22;494;48.744;10.106;2023-11-21T13:16:41;12.60;1.00
1011;DHT22;494;48.744;10.106;2023-11-21T13:19:13;12.50;1.00
1011;DHT22;494;48.744;10.106;2023-11-21T13:21:44;12.50;1.00
1011;DHT22;494;48.744;10.106;2023-11-21T13:24:13;12.50;1.00
1011;DHT22;494;48.744;10.106;2023-11-21T13:26:44;12.50;1.00
1011;DHT22;494;48.744;10.106;2023-11-21T13:29:16;12.50;1.00
1011;DHT22;494;48.744;10.106;2023-11-21T13:31:47;12.40;1.00
1011;DHT22;494;48.744;10.106;2023-11-21T13:34:20;12.40;1.00
1011;DHT22;494;48.744;10.106;2023-11-21T13:36:57;12.30;1.00
1011;DHT22;494;48.744;10.106;2023-11-21T13:39:28;12.30;1.00
1011;DHT22;494;48.744;10.106;2023-11-21T13:41:59;12.40;1.00
1011;DHT22;494;48.744;10.106;2023-11-21T13:44:34;12.50;1.00
1011;DHT22;494;48.744;10.106;2023-11-21T13:47:06;12.50;1.00
1011;DHT22;494;48.744;10.106;2023-11-21T13:49:36;12.50;1.00
1011;DHT22;494;48.744;10.106;2023-11-21T13:52:08;12.40;1.00
1011;DHT22;494;48.744;10.106;2023-11-21T13:54:42;12.40;1.00
1011;DHT22;494;48.744;10.106;2023-11-21T13:57:12;12.20;1.00
1011;DHT22;494;48.744;10.106;2023-11-21T13:59:45;12.00;1.00
1011;DHT22;494;48.744;10.106;2023-11-21T14:02:14;11.80;1.00
1011;DHT22;494;48.744;10.106;2023-11-21T14:05:01;11.70;1.00
1011;DHT22;494;48.744;10.106;2023-11-21T14:07:36;11.70;1.00
1011;DHT22;494;48.744;10.106;2023-11-21T14:10:07;11.80;1.00
1011;DHT22;494;48.744;10.106;2023-11-21T14:12:41;11.70;1.00
1011;DHT22;494;48.744;10.106;2023-11-21T14:15:13;11.70;1.00
1011;DHT22;494;48.744;10.106;2023-11-21T14:17:47;11.60;1.00
1011;DHT22;494;48.744;10.106;2023-11-21T14:20:19;11.60;1.00
1011;DHT22;494;48.744;10.106;2023-11-21T14:23:17;11.50;1.00
1011;DHT22;494;48.744;10.106;2023-11-21T14:26:01;11.50;1.00
1011;DHT22;494;48.744;10.106;2023-11-21T14:28:31;11.60;1.00
1011;DHT22;494;48.744;10.106;2023-11-21T15:54:31;10.70;1.00
1011;DHT22;494;48.744;10.106;2023-11-21T16:00:05;10.80;1.00
1011;DHT22;494;48.744;10.106;2023-11-21T16:03:21;10.80;1.00
1011;DHT22;494;48.744;10.106;2023-11-21T16:07:12;10.80;1.00
1011;DHT22;494;48.744;10.106;2023-11-21T16:23:10;10.50;1.00
1011;DHT22;494;48.744;10.106;2023-11-21T19:05:17;9.20;1.00
1011;DHT22;494;48.744;10.106;2023-11-21T19:07:46;9.20;1.00
1011;DHT22;494;48.744;10.106;2023-11-21T19:10:16;9.30;1.00
1011;DHT22;494;48.744;10.106;2023-11-21T19:12:46;9.40;1.00
1011;DHT22;494;48.744;10.106;2023-11-21T19:15:15;9.30;1.00
1011;DHT22;494;48.744;10.106;2023-11-21T19:17:45;9.30;1.00
1011;DHT22;494;48.744;10.106;2023-11-21T19:20:16;9.30;1.00
1011;DHT22;494;48.744;10.106;2023-11-21T19:22:46;9.20;1.00
1011;DHT22;494;48.744;10.106;2023-11-21T19:25:16;9.20;1.00
1011;DHT22;494;48.744;10.106;2023-11-21T19:27:46;9.20;1.00
1011;DHT22;494;48.744;10.106;2023-11-21T19:30:17;9.30;1.00
1011;DHT22;494;48.744;10.106;2023-11-21T19:32:47;9.40;1.00
1011;DHT22;494;48.744;10.106;2023-11-21T19:35:18;9.50;1.00
1011;DHT22;494;48.744;10.106;2023-11-21T19:37:48;9.50;1.00
1011;DHT22;494;48.744;10.106;2023-11-21T19:40:19;9.60;1.00
1011;DHT22;494;48.744;10.106;2023-11-21T19:42:51;9.60;1.00
1011;DHT22;494;48.744;10.106;2023-11-21T19:45:22;9.70;1.00
1011;DHT22;494;48.744;10.106;2023-11-21T19:47:54;9.80;1.00
1011;DHT22;494;48.744;10.106;2023-11-21T19:50:25;9.90;1.00
1011;DHT22;494;48.744;10.106;2023-11-21T19:52:56;10.00;1.00
1011;DHT22;494;48.744;10.106;2023-11-21T19:55:29;10.00;1.00
1011;DHT22;494;48.744;10.106;2023-11-21T19:58:01;10.10;1.00
1011;DHT22;494;48.744;10.106;2023-11-21T20:00:30;10.00;1.00
1011;DHT22;494;48.744;10.106;2023-11-21T20:03:02;10.10;1.00
1011;DHT22;494;48.744;10.106;2023-11-21T20:05:34;10.10;1.00
1011;DHT22;494;48.744;10.106;2023-11-21T20:08:05;10.10;1.00
1011;DHT22;494;48.744;10.106;2023-11-21T20:10:40;10.00;1.00
1011;DHT22;494;48.744;10.106;2023-11-21T20:13:13;10.10;1.00
1011;DHT22;494;48.744;10.106;2023-11-21T20:15:44;10.00;1.00
1011;DHT22;494;48.744;10.106;2023-11-21T20:18:18;10.10;1.00
1011;DHT22;494;48.744;10.106;2023-11-21T20:20:52;10.00;1.00
1011;DHT22;494;48.744;10.106;2023-11-21T20:23:21;10.10;1.00
1011;DHT22;494;48.744;10.106;2023-11-21T20:25:54;10.10;1.00
1011;DHT22;494;48.744;10.106;2023-11-21T20:28:26;10.10;1.00
1011;DHT22;494;48.744;10.106;2023-11-21T20:30:58;10.00;1.00
1011;DHT22;494;48.744;10.106;2023-11-21T20:33:29;9.80;1.00
1011;DHT22;494;48.744;10.106;2023-11-21T20:36:03;9.60;1.00
1011;DHT22;494;48.744;10.106;2023-11-21T20:38:33;9.70;1.00
1011;DHT22;494;48.744;10.106;2023-11-21T20:41:05;9.70;1.00
1011;DHT22;494;48.744;10.106;2023-11-21T20:43:40;9.80;1.00
1011;DHT22;494;48.744;10.106;2023-11-21T20:46:14;9.80;1.00
1011;DHT22;494;48.744;10.106;2023-11-21T20:48:50;9.90;1.00
1011;DHT22;494;48.744;10.106;2023-11-21T20:51:25;10.00;1.00
1011;DHT22;494;48.744;10.106;2023-11-21T20:53:58;9.90;1.00
1011;DHT22;494;48.744;10.106;2023-11-21T20:56:31;9.90;1.00
1011;DHT22;494;48.744;10.106;2023-11-21T20:59:03;9.80;1.00
1011;DHT22;494;48.744;10.106;2023-11-21T21:01:35;9.70;1.00
1011;DHT22;494;48.744;10.106;2023-11-21T21:04:06;9.70;1.00
1011;DHT22;494;48.744;10.106;2023-11-21T21:06:50;9.60;1.00
1011;DHT22;494;48.744;10.106;2023-11-21T21:09:22;9.70;1.00
1011;DHT22;494;48.744;10.106;2023-11-21T21:11:54;9.80;1.00
1011;DHT22;494;48.744;10.106;2023-11-21T21:14:26;9.70;1.00
1011;DHT22;494;48.744;10.106;2023-11-21T21:16:59;9.70;1.00
1011;DHT22;494;48.744;10.106;2023-11-21T21:19:32;9.80;1.00
1011;DHT22;494;48.744;10.106;2023-11-21T21:22:04;9.80;1.00
1011;DHT22;494;48.744;10.106;2023-11-21T21:24:34;9.70;1.00
1011;DHT22;494;48.744;10.106;2023-11-21T21:27:04;9.80;1.00
1011;DHT22;494;48.744;10.106;2023-11-21T21:29:34;9.80;1.00
1011;DHT22;494;48.744;10.106;2023-11-21T21:32:07;9.60;1.00
1011;DHT22;494;48.744;10.106;2023-11-21T21:34:38;9.60;1.00
1011;DHT22;494;48.744;10.106;2023-11-21T21:37:12;9.70;1.00
1011;DHT22;494;48.744;10.106;2023-11-21T21:39:41;9.70;1.00
1011;DHT22;494;48.744;10.106;2023-11-21T21:42:13;9.70;1.00
1011;DHT22;494;48.744;10.106;2023-11-21T21:44:42;9.70;1.00
1011;DHT22;494;48.744;10.106;2023-11-21T21:47:15;9.70;1.00
1011;DHT22;494;48.744;10.106;2023-11-21T21:49:47;9.60;1.00
1011;DHT22;494;48.744;10.106;2023-11-21T21:52:34;9.70;1.00
1011;DHT22;494;48.744;10.106;2023-11-21T21:55:10;9.70;1.00
1011;DHT22;494;48.744;10.106;2023-11-21T21:57:44;9.70;1.00
1011;DHT22;494;48.744;10.106;2023-11-21T22:00:19;9.80;1.00
1011;DHT22;494;48.744;10.106;2023-11-21T22:02:50;9.70;1.00
1011;DHT22;494;48.744;10.106;2023-11-21T22:05:36;9.90;1.00
1011;DHT22;494;48.744;10.106;2023-11-21T22:08:10;10.00;1.00
1011;DHT22;494;48.744;10.106;2023-11-21T22:10:46;9.90;1.00
1011;DHT22;494;48.744;10.106;2023-11-21T22:13:17;9.90;1.00
1011;DHT22;494;48.744;10.106;2023-11-21T22:15:48;9.90;1.00
1011;DHT22;494;48.744;10.106;2023-11-21T22:18:22;10.00;1.00
1011;DHT22;494;48.744;10.106;2023-11-21T22:20:58;9.90;1.00
1011;DHT22;494;48.744;10.106;2023-11-21T22:23:56;9.80;1.00
1011;DHT22;494;48.744;10.106;2023-11-21T22:26:33;9.90;1.00
1011;DHT22;494;48.744;10.106;2023-11-21T22:29:09;10.00;1.00
1011;DHT22;494;48.744;10.106;2023-11-21T22:31:56;10.00;1.00
1011;DHT22;494;48.744;10.106;2023-11-21T22:34:33;9.90;1.00
1011;DHT22;494;48.744;10.106;2023-11-21T22:37:08;9.90;1.00
1011;DHT22;494;48.744;10.106;2023-11-21T22:39:48;9.90;1.00
1011;DHT22;494;48.744;10.106;2023-11-21T22:42:37;9.90;1.00
1011;DHT22;494;48.744;10.106;2023-11-21T22:45:24;9.90;1.00
1011;DHT22;494;48.744;10.106;2023-11-21T22:47:55;9.90;1.00
1011;DHT22;494;48.744;10.106;2023-11-21T22:50:28;9.90;1.00
1011;DHT22;494;48.744;10.106;2023-11-21T22:53:01;9.90;1.00
1011;DHT22;494;48.744;10.106;2023-11-21T22:55:40;9.90;1.00
1011;DHT22;494;48.744;10.106;2023-11-21T22:58:21;9.90;1.00
1011;DHT22;494;48.744;10.106;2023-11-21T23:00:54;10.00;1.00
1011;DHT22;494;48.744;10.106;2023-11-21T23:03:34;9.90;1.00
1011;DHT22;494;48.744;10.106;2023-11-21T23:06:18;10.00;1.00
1011;DHT22;494;48.744;10.106;2023-11-21T23:08:53;9.90;1.00
1011;DHT22;494;48.744;10.106;2023-11-21T23:11:32;9.90;1.00
1011;DHT22;494;48.744;10.106;2023-11-21T23:14:01;9.80;1.00
1011;DHT22;494;48.744;10.106;2023-11-21T23:16:36;9.90;1.00
1011;DHT22;494;48.744;10.106;2023-11-21T23:19:10;10.00;1.00
1011;DHT22;494;48.744;10.106;2023-11-21T23:21:44;10.00;1.00
1011;DHT22;494;48.744;10.106;2023-11-21T23:24:26;10.00;1.00
1011;DHT22;494;48.744;10.106;2023-11-21T23:27:12;9.90;1.00
1011;DHT22;494;48.744;10.106;2023-11-21T23:29:41;9.90;1.00
1011;DHT22;494;48.744;10.106;2023-11-21T23:32:16;9.90;1.00
1011;DHT22;494;48.744;10.106;2023-11-21T23:34:51;9.90;1.00
1011;DHT22;494;48.744;10.106;2023-11-21T23:37:44;10.00;1.00
1011;DHT22;494;48.744;10.106;2023-11-21T23:40:27;9.90;1.00
1011;DHT22;494;48.744;10.106;2023-11-21T23:43:06;9.90;1.00
1011;DHT22;494;48.744;10.106;2023-11-21T23:45:53;9.90;1.00
1011;DHT22;494;48.744;10.106;2023-11-21T23:48:30;10.00;1.00
1011;DHT22;494;48.744;10.106;2023-11-21T23:51:02;9.90;1.00
1011;DHT22;494;48.744;10.106;2023-11-21T23:53:34;10.00;1.00
1011;DHT22;494;48.744;10.106;2023-11-21T23:56:08;9.90;1.00
1011;DHT22;494;48.744;10.106;2023-11-21T23:59:13;10.00;1.00
